createdAt,value
2022-08-26T00:02:14.770Z,50.35
2022-08-26T00:04:43.556Z,50.63
2022-08-26T00:07:13.081Z,56.42
2022-08-26T00:09:41.099Z,51.20
2022-08-26T00:12:16.039Z,50.20
2022-08-26T00:14:45.262Z,53.45
2022-08-26T00:17:13.244Z,59.70
2022-08-26T00:19:41.421Z,48.53
2022-08-26T00:22:21.572Z,58.80
2022-08-26T00:24:51.023Z,58.92
2022-08-26T00:27:19.060Z,56.13
2022-08-26T00:29:49.031Z,53.08
2022-08-26T00:32:17.300Z,54.80
2022-08-26T00:34:45.754Z,52.53
2022-08-26T00:37:16.227Z,46.55
2022-08-26T00:39:44.325Z,50.95
2022-08-26T00:42:15.140Z,49.70
2022-08-26T00:44:43.808Z,51.40
2022-08-26T00:47:16.526Z,59.10
2022-08-26T00:49:47.597Z,55.47
2022-08-26T00:52:17.405Z,60.15
2022-08-26T00:54:47.868Z,63.33
2022-08-26T00:57:18.670Z,52.00
2022-08-26T00:59:48.250Z,55.60
2022-08-26T01:02:20.129Z,61.45
2022-08-26T01:07:17.070Z,55.83
2022-08-26T01:09:45.019Z,67.30
2022-08-26T01:12:13.334Z,68.20
2022-08-26T01:14:43.364Z,64.13
2022-08-26T01:17:15.483Z,62.55
2022-08-26T01:19:45.372Z,61.28
2022-08-26T01:22:15.686Z,59.78
2022-08-26T01:24:45.282Z,66.43
2022-08-26T01:27:18.142Z,64.80
2022-08-26T01:29:46.536Z,71.03
2022-08-26T01:32:16.103Z,65.53
2022-08-26T01:34:44.244Z,66.30
2022-08-26T01:37:15.742Z,74.82
2022-08-26T01:39:46.282Z,73.82
2022-08-26T01:42:15.232Z,74.22
2022-08-26T01:44:46.346Z,72.30
2022-08-26T01:47:18.688Z,71.97
2022-08-26T01:49:50.854Z,68.63
2022-08-26T01:52:24.034Z,68.55
2022-08-26T01:54:58.791Z,73.80
2022-08-26T01:57:27.119Z,75.30
2022-08-26T01:59:57.530Z,68.00
2022-08-26T02:02:25.602Z,73.22
2022-08-26T02:04:55.461Z,66.97
2022-08-26T02:07:23.451Z,66.32
2022-08-26T02:09:54.874Z,67.45
2022-08-26T02:12:24.295Z,54.97
2022-08-26T02:14:55.302Z,57.60
2022-08-26T02:17:24.977Z,61.20
2022-08-26T02:19:53.232Z,63.53
2022-08-26T02:22:22.496Z,58.88
2022-08-26T02:24:53.723Z,64.75
2022-08-26T02:27:23.992Z,57.03
2022-08-26T02:29:54.819Z,66.88
2022-08-26T02:32:22.699Z,60.05
2022-08-26T02:34:51.301Z,63.35
2022-08-26T02:37:20.150Z,60.97
2022-08-26T02:39:50.998Z,65.20
2022-08-26T02:42:20.130Z,62.55
2022-08-26T02:44:48.099Z,95.32
2022-08-26T02:47:17.837Z,67.72
2022-08-26T02:49:47.292Z,80.47
2022-08-26T02:52:15.412Z,66.57
2022-08-26T02:54:43.349Z,69.38
2022-08-26T02:57:13.600Z,89.47
2022-08-26T02:59:41.543Z,73.15
2022-08-26T03:02:10.820Z,92.45
2022-08-26T03:04:40.687Z,93.00
2022-08-26T03:07:25.963Z,89.97
2022-08-26T03:09:53.931Z,112.82
2022-08-26T03:12:21.786Z,171.68
2022-08-26T03:14:49.699Z,113.50
2022-08-26T03:17:17.744Z,107.75
2022-08-26T03:19:47.857Z,119.53
2022-08-26T03:22:19.757Z,109.82
2022-08-26T03:24:48.498Z,110.63
2022-08-26T03:27:17.993Z,117.22
2022-08-26T03:30:03.722Z,111.55
2022-08-26T03:32:32.575Z,112.72
2022-08-26T03:35:02.194Z,99.47
2022-08-26T03:37:31.224Z,108.05
2022-08-26T03:39:59.201Z,110.78
2022-08-26T03:42:27.180Z,112.05
2022-08-26T03:44:55.637Z,108.30
2022-08-26T03:47:23.569Z,103.88
2022-08-26T03:49:51.910Z,110.18
2022-08-26T03:52:21.488Z,105.88
2022-08-26T03:54:51.248Z,109.90
2022-08-26T03:57:19.378Z,103.50
2022-08-26T03:59:47.476Z,105.55
2022-08-26T04:02:16.133Z,103.40
2022-08-26T04:04:44.700Z,86.03
2022-08-26T04:07:14.589Z,102.53
2022-08-26T04:09:44.507Z,92.72
2022-08-26T04:12:12.481Z,102.40
2022-08-26T04:14:41.281Z,93.35
2022-08-26T04:17:09.277Z,87.93
2022-08-26T04:19:37.204Z,110.07
2022-08-26T04:22:05.245Z,95.88
2022-08-26T04:24:33.715Z,98.00
2022-08-26T04:27:03.775Z,100.75
2022-08-26T04:29:32.374Z,93.15
2022-08-26T04:32:00.995Z,97.70
2022-08-26T04:34:29.864Z,97.95
2022-08-26T04:36:58.159Z,93.88
2022-08-26T04:39:27.695Z,97.60
2022-08-26T04:41:57.800Z,80.93
2022-08-26T04:44:28.394Z,94.95
2022-08-26T04:46:56.922Z,88.20
2022-08-26T04:49:26.131Z,88.63
2022-08-26T04:51:55.518Z,90.82
2022-08-26T04:54:25.215Z,102.40
2022-08-26T04:56:53.211Z,96.45
2022-08-26T04:59:21.317Z,98.88
2022-08-26T05:01:52.182Z,89.43
2022-08-26T05:04:21.235Z,90.35
2022-08-26T05:06:50.604Z,101.15
2022-08-26T05:09:20.215Z,106.15
2022-08-26T05:11:52.207Z,90.80
2022-08-26T05:14:21.347Z,97.13
2022-08-26T05:16:52.065Z,88.40
2022-08-26T05:19:19.977Z,86.68
2022-08-26T05:21:49.556Z,82.38
2022-08-26T05:24:18.046Z,79.18
2022-08-26T05:26:47.091Z,94.85
2022-08-26T05:29:17.652Z,83.65
2022-08-26T05:31:45.946Z,93.18
2022-08-26T05:34:15.303Z,78.47
2022-08-26T05:36:45.012Z,74.25
2022-08-26T05:39:13.390Z,80.18
2022-08-26T05:41:44.832Z,73.15
2022-08-26T05:44:14.566Z,80.45
2022-08-26T05:46:45.781Z,54.40
2022-08-26T05:49:15.843Z,53.90
2022-08-26T05:51:45.264Z,65.82
2022-08-26T05:54:21.281Z,52.58
2022-08-26T05:56:50.960Z,60.45
2022-08-26T05:59:24.359Z,56.90
2022-08-26T06:01:53.094Z,56.45
2022-08-26T06:04:22.813Z,50.85
2022-08-26T06:06:53.301Z,53.15
2022-08-26T06:09:21.349Z,61.35
2022-08-26T06:11:49.596Z,50.28
2022-08-26T06:14:18.264Z,51.80
2022-08-26T06:16:47.054Z,46.97
2022-08-26T06:19:17.356Z,44.55
2022-08-26T06:21:51.297Z,49.28
2022-08-26T06:24:39.359Z,40.75
2022-08-26T06:27:11.478Z,36.40
2022-08-26T06:29:41.557Z,49.47
2022-08-26T06:32:09.494Z,42.38
2022-08-26T06:34:37.709Z,33.38
2022-08-26T06:37:07.308Z,32.40
2022-08-26T06:39:35.497Z,39.65
2022-08-26T06:42:08.786Z,30.60
2022-08-26T06:44:38.952Z,30.70
2022-08-26T06:47:09.393Z,27.42
2022-08-26T06:49:37.453Z,26.40
2022-08-26T06:52:06.811Z,24.48
2022-08-26T06:54:35.037Z,28.17
2022-08-26T06:57:03.005Z,29.70
2022-08-26T06:59:32.344Z,30.75
2022-08-26T07:02:00.483Z,26.02
2022-08-26T07:04:30.467Z,23.17
2022-08-26T07:06:58.354Z,24.23
2022-08-26T07:09:29.433Z,22.35
2022-08-26T07:11:57.581Z,24.55
2022-08-26T07:14:26.162Z,27.20
2022-08-26T07:16:54.744Z,23.20
2022-08-26T07:19:31.129Z,23.65
2022-08-26T07:22:02.072Z,25.67
2022-08-26T07:24:32.940Z,26.67
2022-08-26T07:27:01.542Z,25.58
2022-08-26T07:29:32.829Z,25.85
2022-08-26T07:32:03.317Z,24.55
2022-08-26T07:34:32.285Z,18.15
2022-08-26T07:37:02.036Z,21.55
2022-08-26T07:39:31.621Z,20.63
2022-08-26T07:42:17.008Z,18.67
2022-08-26T07:44:46.408Z,14.15
2022-08-26T07:47:25.086Z,15.77
2022-08-26T07:49:54.669Z,20.17
2022-08-26T07:52:26.232Z,14.95
2022-08-26T07:54:55.429Z,19.35
2022-08-26T07:57:24.685Z,17.52
2022-08-26T07:59:54.054Z,19.00
2022-08-26T08:02:23.529Z,21.98
2022-08-26T08:04:51.888Z,19.75
2022-08-26T08:07:20.262Z,21.05
2022-08-26T08:09:49.764Z,23.17
2022-08-26T08:12:17.732Z,21.65
2022-08-26T08:14:47.237Z,23.65
2022-08-26T08:17:16.506Z,26.38
2022-08-26T08:19:44.392Z,23.25
2022-08-26T08:22:17.932Z,19.70
2022-08-26T08:24:49.918Z,23.15
2022-08-26T08:27:23.709Z,21.00
2022-08-26T08:29:55.367Z,22.85
2022-08-26T08:32:23.799Z,18.85
2022-08-26T08:34:51.825Z,23.25
2022-08-26T08:37:19.909Z,21.75
2022-08-26T08:39:49.092Z,19.20
2022-08-26T08:42:28.729Z,17.88
2022-08-26T08:44:59.836Z,16.67
2022-08-26T08:47:35.294Z,22.30
2022-08-26T08:50:08.005Z,19.25
2022-08-26T08:52:37.041Z,21.63
2022-08-26T08:55:11.094Z,21.88
2022-08-26T08:57:47.357Z,25.38
2022-08-26T09:00:19.324Z,14.90
2022-08-26T09:02:50.365Z,16.10
2022-08-26T09:05:20.242Z,19.30
2022-08-26T09:07:50.509Z,17.58
2022-08-26T09:10:25.652Z,16.63
2022-08-26T09:12:53.778Z,13.98
2022-08-26T09:15:26.366Z,14.93
2022-08-26T09:18:00.453Z,15.43
2022-08-26T09:20:35.761Z,16.80
2022-08-26T09:23:05.457Z,20.92
2022-08-26T09:25:45.782Z,16.33
2022-08-26T09:28:18.906Z,24.02
2022-08-26T09:30:59.197Z,15.27
2022-08-26T09:33:29.808Z,16.63
2022-08-26T09:36:13.183Z,14.23
2022-08-26T09:38:41.670Z,20.85
2022-08-26T09:41:21.700Z,15.50
2022-08-26T09:44:09.065Z,16.67
2022-08-26T09:46:46.561Z,15.63
2022-08-26T09:49:31.628Z,16.92
2022-08-26T09:52:09.936Z,17.30
2022-08-26T09:54:38.861Z,15.38
2022-08-26T09:57:18.960Z,16.95
2022-08-26T09:59:47.344Z,15.00
2022-08-26T10:02:24.617Z,17.05
2022-08-26T10:04:54.423Z,15.93
2022-08-26T10:07:35.694Z,12.73
2022-08-26T10:10:05.463Z,16.90
2022-08-26T10:12:36.099Z,16.05
2022-08-26T10:15:09.509Z,16.98
2022-08-26T10:18:05.533Z,18.02
2022-08-26T10:20:36.345Z,15.68
2022-08-26T10:23:06.680Z,13.93
2022-08-26T10:25:39.520Z,17.55
2022-08-26T10:28:11.122Z,16.63
2022-08-26T10:30:42.760Z,14.13
2022-08-26T10:33:14.658Z,17.40
2022-08-26T10:35:45.966Z,17.85
2022-08-26T10:38:16.190Z,18.55
2022-08-26T10:40:49.078Z,24.17
2022-08-26T10:43:20.522Z,15.43
2022-08-26T10:45:51.620Z,14.70
2022-08-26T10:48:24.543Z,16.55
2022-08-26T10:50:52.900Z,15.65
2022-08-26T10:53:26.500Z,18.08
2022-08-26T10:56:00.420Z,14.65
2022-08-26T10:58:42.661Z,13.35
2022-08-26T11:01:33.201Z,24.02
2022-08-26T11:04:05.948Z,18.67
2022-08-26T11:06:34.052Z,13.38
2022-08-26T11:09:06.300Z,15.73
2022-08-26T11:11:55.342Z,14.55
2022-08-26T11:14:42.098Z,14.32
2022-08-26T11:17:36.896Z,15.95
2022-08-26T11:20:13.301Z,13.90
2022-08-26T11:22:47.975Z,13.60
2022-08-26T11:25:16.642Z,12.52
2022-08-26T11:28:05.043Z,11.60
2022-08-26T11:30:57.643Z,11.90
2022-08-26T11:33:59.925Z,11.68
2022-08-26T11:36:51.988Z,11.52
2022-08-26T11:39:25.626Z,15.97
2022-08-26T11:41:55.597Z,12.80
2022-08-26T11:44:26.678Z,11.60
2022-08-26T11:46:55.838Z,14.18
2022-08-26T11:49:24.981Z,15.80
2022-08-26T11:51:53.298Z,11.73
2022-08-26T11:54:35.304Z,12.95
2022-08-26T11:57:07.932Z,14.32
2022-08-26T11:59:40.713Z,17.15
2022-08-26T12:02:14.228Z,12.77
2022-08-26T12:04:44.275Z,19.02
2022-08-26T12:07:12.949Z,12.77
2022-08-26T12:09:53.361Z,15.30
2022-08-26T12:12:23.831Z,13.32
2022-08-26T12:15:06.540Z,17.38
2022-08-26T12:17:35.316Z,15.20
2022-08-26T12:20:07.100Z,15.23
2022-08-26T12:22:36.114Z,14.77
2022-08-26T12:25:07.237Z,14.75
2022-08-26T12:27:36.218Z,14.18
2022-08-26T12:30:06.833Z,15.77
2022-08-26T12:32:37.505Z,13.82
2022-08-26T12:35:24.490Z,13.75
2022-08-26T12:37:54.405Z,14.27
2022-08-26T12:40:39.405Z,14.20
2022-08-26T12:43:07.858Z,13.65
2022-08-26T12:45:39.687Z,13.20
2022-08-26T12:48:10.160Z,13.63
2022-08-26T12:50:38.960Z,17.02
2022-08-26T12:53:15.457Z,11.85
2022-08-26T12:55:48.669Z,14.43
2022-08-26T12:58:25.242Z,16.65
2022-08-26T13:00:54.322Z,17.27
2022-08-26T13:03:29.486Z,15.90
2022-08-26T13:06:15.494Z,16.73
2022-08-26T13:08:44.826Z,15.38
2022-08-26T13:11:18.638Z,16.05
2022-08-26T13:13:51.937Z,25.33
2022-08-26T13:16:22.157Z,15.02
2022-08-26T13:18:51.225Z,19.27
2022-08-26T13:21:20.837Z,14.52
2022-08-26T13:23:48.787Z,17.30
2022-08-26T13:26:18.579Z,14.27
2022-08-26T13:28:48.657Z,16.00
2022-08-26T13:31:31.224Z,14.65
2022-08-26T13:33:59.679Z,16.98
2022-08-26T13:36:27.787Z,17.23
2022-08-26T13:38:55.685Z,13.35
2022-08-26T13:41:29.634Z,13.15
2022-08-26T13:43:59.445Z,14.07
2022-08-26T13:46:27.845Z,15.35
2022-08-26T13:48:56.032Z,16.92
2022-08-26T13:51:23.994Z,13.93
2022-08-26T13:53:52.496Z,15.43
2022-08-26T13:56:20.563Z,18.48
2022-08-26T13:58:50.045Z,16.00
2022-08-26T14:01:18.592Z,13.85
2022-08-26T14:03:47.263Z,17.23
2022-08-26T14:06:15.465Z,18.23
2022-08-26T14:08:43.669Z,14.70
2022-08-26T14:11:11.911Z,16.58
2022-08-26T14:13:40.491Z,13.25
2022-08-26T14:16:11.857Z,14.95
2022-08-26T14:18:45.204Z,14.50
2022-08-26T14:21:15.953Z,15.90
2022-08-26T14:23:43.847Z,14.15
2022-08-26T14:26:27.814Z,13.07
2022-08-26T14:28:57.222Z,17.75
2022-08-26T14:31:29.414Z,15.68
2022-08-26T14:36:32.204Z,13.65
2022-08-26T14:39:02.120Z,15.88
2022-08-26T14:41:30.663Z,14.30
2022-08-26T14:44:00.277Z,13.55
2022-08-26T14:46:33.572Z,16.17
2022-08-26T14:49:04.373Z,19.75
2022-08-26T14:51:35.461Z,13.93
2022-08-26T14:54:16.314Z,14.43
2022-08-26T14:56:48.727Z,15.27
2022-08-26T14:59:17.766Z,16.38
2022-08-26T15:01:50.118Z,15.68
2022-08-26T15:06:46.556Z,16.15
2022-08-26T15:09:15.219Z,17.48
2022-08-26T15:11:43.345Z,14.70
2022-08-26T15:14:19.675Z,16.40
2022-08-26T15:16:50.937Z,13.50
2022-08-26T15:19:19.155Z,12.98
2022-08-26T15:21:47.608Z,15.25
2022-08-26T15:24:16.363Z,17.17
2022-08-26T15:26:44.621Z,17.48
2022-08-26T15:29:12.562Z,20.77
2022-08-26T15:31:40.717Z,21.92
2022-08-26T15:34:14.622Z,20.30
2022-08-26T15:36:46.044Z,15.88
2022-08-26T15:39:14.731Z,24.67
2022-08-26T15:41:42.745Z,18.92
2022-08-26T15:44:11.155Z,29.92
2022-08-26T15:46:39.957Z,16.90
2022-08-26T15:49:08.561Z,20.25
2022-08-26T15:51:49.320Z,26.70
2022-08-26T15:54:18.572Z,21.67
2022-08-26T15:56:49.178Z,24.13
2022-08-26T15:59:17.622Z,22.20
2022-08-26T16:01:45.896Z,28.08
2022-08-26T16:04:14.099Z,23.58
2022-08-26T16:06:43.697Z,19.45
2022-08-26T16:09:13.193Z,29.17
2022-08-26T16:11:41.211Z,24.75
2022-08-26T16:14:09.277Z,20.23
2022-08-26T16:16:39.361Z,21.13
2022-08-26T16:19:07.727Z,21.88
2022-08-26T16:21:36.143Z,18.13
2022-08-26T16:24:04.613Z,17.63
2022-08-26T16:26:34.811Z,21.50
2022-08-26T16:29:03.087Z,19.50
2022-08-26T16:31:31.188Z,22.40
2022-08-26T16:34:00.352Z,28.88
2022-08-26T16:36:28.485Z,30.50
2022-08-26T16:39:02.255Z,21.90
2022-08-26T16:41:31.424Z,21.45
2022-08-26T16:44:01.234Z,21.73
2022-08-26T16:46:29.500Z,20.45
2022-08-26T16:48:58.212Z,22.08
2022-08-26T16:51:27.588Z,28.40
2022-08-26T16:53:56.398Z,26.33
2022-08-26T16:56:33.909Z,20.30
2022-08-26T16:59:04.422Z,21.50
2022-08-26T17:01:34.028Z,26.65
2022-08-26T17:04:02.307Z,24.60
2022-08-26T17:06:30.183Z,34.13
2022-08-26T17:08:58.157Z,28.20
2022-08-26T17:11:26.042Z,28.83
2022-08-26T17:13:53.937Z,41.28
2022-08-26T17:16:26.816Z,28.38
2022-08-26T17:18:56.089Z,25.42
2022-08-26T17:21:24.137Z,24.38
2022-08-26T17:23:52.242Z,29.85
2022-08-26T17:26:20.188Z,30.05
2022-08-26T17:28:48.211Z,27.88
2022-08-26T17:31:16.220Z,30.42
2022-08-26T17:33:48.903Z,29.35
2022-08-26T17:36:21.574Z,39.80
2022-08-26T17:38:50.516Z,40.67
2022-08-26T17:41:22.357Z,35.08
2022-08-26T17:43:50.280Z,34.67
2022-08-26T17:46:18.263Z,83.43
2022-08-26T17:48:48.504Z,34.05
2022-08-26T17:51:19.328Z,41.40
2022-08-26T17:53:48.316Z,35.38
2022-08-26T17:56:18.737Z,39.00
2022-08-26T17:58:51.104Z,47.28
2022-08-26T18:01:20.459Z,41.95
2022-08-26T18:03:50.339Z,58.03
2022-08-26T18:06:18.303Z,44.42
2022-08-26T18:08:46.438Z,55.22
2022-08-26T18:11:16.881Z,73.25
2022-08-26T18:13:47.112Z,68.55
2022-08-26T18:16:23.596Z,76.40
2022-08-26T18:18:53.790Z,71.60
2022-08-26T18:21:23.161Z,64.03
2022-08-26T18:23:51.424Z,87.20
2022-08-26T18:26:20.652Z,82.72
2022-08-26T18:28:48.747Z,65.22
2022-08-26T18:31:17.010Z,60.60
2022-08-26T18:33:45.087Z,69.15
2022-08-26T18:36:30.202Z,60.35
2022-08-26T18:39:02.914Z,55.08
2022-08-26T18:41:32.841Z,51.67
2022-08-26T18:44:00.864Z,53.08
2022-08-26T18:46:29.086Z,55.10
2022-08-26T18:48:57.791Z,52.92
2022-08-26T18:51:30.837Z,50.00
2022-08-26T18:53:59.341Z,52.33
2022-08-26T18:56:27.720Z,54.28
2022-08-26T18:58:55.659Z,56.05
2022-08-26T19:01:27.433Z,47.63
2022-08-26T19:03:56.214Z,46.40
2022-08-26T19:06:25.887Z,45.10
2022-08-26T19:08:55.756Z,51.85
2022-08-26T19:11:32.428Z,43.03
2022-08-26T19:14:06.550Z,44.92
2022-08-26T19:16:34.964Z,42.67
2022-08-26T19:19:03.500Z,42.60
2022-08-26T19:21:33.207Z,41.35
2022-08-26T19:24:03.737Z,48.67
2022-08-26T19:26:31.974Z,47.78
2022-08-26T19:28:59.973Z,63.40
2022-08-26T19:31:28.403Z,63.70
2022-08-26T19:33:58.075Z,69.15
2022-08-26T19:36:27.278Z,74.22
2022-08-26T19:38:56.026Z,62.85
2022-08-26T19:41:36.646Z,82.07
2022-08-26T19:44:06.818Z,71.65
2022-08-26T19:46:34.811Z,81.47
2022-08-26T19:49:03.215Z,64.78
2022-08-26T19:51:33.493Z,72.65
2022-08-26T19:54:02.221Z,73.10
2022-08-26T19:56:31.608Z,72.60
2022-08-26T19:58:59.762Z,85.95
2022-08-26T20:01:27.759Z,83.10
2022-08-26T20:06:28.647Z,76.30
2022-08-26T20:08:56.650Z,75.88
2022-08-26T20:11:24.862Z,70.47
2022-08-26T20:13:54.700Z,58.65
2022-08-26T20:16:22.629Z,65.05
2022-08-26T20:19:07.817Z,53.70
2022-08-26T20:21:41.715Z,67.07
2022-08-26T20:24:12.112Z,52.15
2022-08-26T20:26:41.974Z,53.10
2022-08-26T20:29:16.599Z,50.10
2022-08-26T20:31:45.223Z,48.08
2022-08-26T20:34:13.596Z,51.13
2022-08-26T20:36:44.779Z,45.38
2022-08-26T20:39:12.947Z,51.17
2022-08-26T20:41:41.198Z,45.78
2022-08-26T20:44:09.666Z,54.90
2022-08-26T20:46:40.922Z,45.92
2022-08-26T20:49:09.049Z,48.38
2022-08-26T20:51:38.679Z,42.35
2022-08-26T20:54:07.136Z,44.13
2022-08-26T20:56:35.106Z,42.20
2022-08-26T20:59:03.431Z,39.65
2022-08-26T21:01:34.778Z,42.08
2022-08-26T21:04:05.451Z,41.88
2022-08-26T21:06:34.007Z,45.58
2022-08-26T21:09:02.661Z,43.53
2022-08-26T21:11:32.112Z,40.22
2022-08-26T21:14:16.004Z,45.20
2022-08-26T21:16:46.182Z,39.97
2022-08-26T21:19:16.234Z,47.83
2022-08-26T21:21:45.828Z,37.85
2022-08-26T21:24:14.051Z,44.28
2022-08-26T21:26:42.138Z,43.00
2022-08-26T21:29:10.804Z,48.33
2022-08-26T21:31:44.945Z,48.08
2022-08-26T21:34:16.073Z,48.30
2022-08-26T21:36:44.033Z,45.17
2022-08-26T21:39:12.431Z,43.97
2022-08-26T21:41:40.882Z,53.25
2022-08-26T21:44:09.373Z,48.30
2022-08-26T21:46:37.581Z,50.88
2022-08-26T21:49:08.512Z,46.72
2022-08-26T21:51:38.718Z,51.85
2022-08-26T21:54:10.864Z,52.90
2022-08-26T21:56:40.941Z,50.63
2022-08-26T21:59:09.720Z,50.45
2022-08-26T22:01:39.221Z,51.13
2022-08-26T22:04:08.739Z,51.97
2022-08-26T22:06:43.389Z,51.92
2022-08-26T22:09:11.929Z,50.13
2022-08-26T22:11:39.927Z,50.53
2022-08-26T22:14:08.153Z,52.85
2022-08-26T22:16:36.261Z,58.42
2022-08-26T22:19:04.428Z,54.20
2022-08-26T22:21:32.748Z,63.53
2022-08-26T22:24:02.086Z,62.25
2022-08-26T22:26:31.194Z,58.72
2022-08-26T22:28:59.633Z,57.78
2022-08-26T22:31:38.014Z,67.38
2022-08-26T22:34:07.956Z,63.30
2022-08-26T22:36:42.658Z,62.22
2022-08-26T22:39:14.235Z,65.47
2022-08-26T22:41:43.275Z,63.15
2022-08-26T22:44:12.022Z,63.28
2022-08-26T22:46:40.043Z,59.40
2022-08-26T22:49:09.054Z,61.53
2022-08-26T22:51:37.000Z,63.80
2022-08-26T22:54:05.037Z,59.78
2022-08-26T22:56:34.942Z,58.58
2022-08-26T22:59:02.890Z,60.63
2022-08-26T23:01:31.543Z,53.53
2022-08-26T23:03:59.681Z,61.40
2022-08-26T23:06:27.648Z,67.03
2022-08-26T23:08:55.582Z,57.10
2022-08-26T23:11:23.720Z,66.65
2022-08-26T23:13:52.988Z,65.80
2022-08-26T23:16:21.258Z,64.78
2022-08-26T23:18:49.253Z,65.20
2022-08-26T23:21:17.161Z,71.22
2022-08-26T23:23:45.543Z,67.45
2022-08-26T23:26:17.543Z,72.00
2022-08-26T23:28:46.484Z,66.85
2022-08-26T23:31:15.908Z,70.18
2022-08-26T23:34:01.402Z,75.85
2022-08-26T23:36:32.322Z,68.30
2022-08-26T23:39:05.713Z,70.57
2022-08-26T23:41:35.865Z,64.72
2022-08-26T23:44:05.374Z,75.78
2022-08-26T23:46:35.317Z,63.58
2022-08-26T23:49:03.362Z,67.75
2022-08-26T23:51:51.003Z,66.00
2022-08-26T23:54:19.765Z,74.57
2022-08-26T23:56:47.723Z,68.70
2022-08-26T23:59:15.907Z,70.20
